Time;durP1;ratioP1;P1;durP2;ratioP2;P2;SDS_P1;SDS_P2;PMS_P1;PMS_P2;Temp;Humidity;BMP_temperature;BMP_pressure;BME280_temperature;BME280_humidity;BME280_pressure;Samples;Min_cycle;Max_cycle;Signal;HPM_P1;HPM_P2
2023/12/15 00:08:10;;;;;;;36.53;18.38;;;7.60;99.90;;;;;;20741411;28;20040;-41
2023/12/15 00:18:10;;;;;;;36.03;19.13;;;7.60;99.90;;;;;;20755042;28;20115;-40
2023/12/15 00:28:11;;;;;;;34.03;19.08;;;7.60;99.90;;;;;;20747728;28;20043;-42
2023/12/15 00:38:12;;;;;;;36.40;19.15;;;7.60;99.90;;;;;;20763892;28;20052;-42
2023/12/15 00:48:12;;;;;;;36.28;19.95;;;7.60;99.90;;;;;;20753745;28;20041;-41
2023/12/15 00:58:13;;;;;;;38.35;21.08;;;7.50;99.90;;;;;;20755615;28;20041;-42
2023/12/15 01:08:14;;;;;;;41.97;21.67;;;7.50;99.90;;;;;;20757086;28;20556;-41
2023/12/15 01:18:14;;;;;;;39.60;21.10;;;7.50;99.90;;;;;;20751773;28;20046;-41
2023/12/15 01:28:15;;;;;;;44.25;22.10;;;7.60;99.90;;;;;;20756851;28;20381;-41
2023/12/15 01:38:15;;;;;;;40.72;20.73;;;7.60;99.90;;;;;;20756387;28;20046;-41
2023/12/15 01:48:16;;;;;;;42.33;22.55;;;7.60;99.90;;;;;;20754522;28;20030;-41
2023/12/15 01:58:17;;;;;;;34.78;19.08;;;7.50;99.90;;;;;;20753898;28;20041;-42
2023/12/15 02:08:17;;;;;;;40.23;19.73;;;7.50;99.90;;;;;;20752943;28;20264;-41
2023/12/15 02:18:18;;;;;;;41.53;21.08;;;7.50;99.90;;;;;;20748161;28;20471;-41
2023/12/15 02:28:18;;;;;;;38.92;18.85;;;7.60;99.90;;;;;;20751229;28;20893;-41
2023/12/15 02:38:19;;;;;;;43.13;21.73;;;7.50;99.90;;;;;;20754229;28;20084;-41
2023/12/15 02:48:19;;;;;;;39.13;20.48;;;7.50;99.90;;;;;;20753433;28;20061;-41
2023/12/15 02:58:20;;;;;;;43.67;21.05;;;7.50;99.90;;;;;;20748468;28;20052;-41
2023/12/15 03:08:24;;;;;;;39.30;20.13;;;7.60;99.90;;;;;;20749937;28;20034;-41
2023/12/15 03:18:25;;;;;;;39.00;20.33;;;7.50;99.90;;;;;;20750173;28;20053;-41
2023/12/15 03:28:25;;;;;;;39.60;19.35;;;7.50;99.90;;;;;;20745660;28;20041;-41
2023/12/15 03:38:26;;;;;;;43.40;20.05;;;7.50;99.90;;;;;;20745037;28;20037;-41
2023/12/15 03:48:26;;;;;;;34.40;18.83;;;7.50;99.90;;;;;;20745987;28;20493;-41
2023/12/15 03:58:27;;;;;;;37.50;19.17;;;7.50;99.90;;;;;;20748716;28;20426;-41
2023/12/15 04:08:28;;;;;;;31.58;16.33;;;7.60;99.90;;;;;;20750995;28;20073;-41
2023/12/15 04:18:28;;;;;;;31.97;17.53;;;7.60;99.90;;;;;;20763676;28;20497;-41
2023/12/15 04:28:29;;;;;;;38.13;17.63;;;7.50;99.90;;;;;;20759598;28;20509;-41
2023/12/15 04:38:29;;;;;;;27.73;15.32;;;7.70;99.90;;;;;;20760388;28;21296;-41
2023/12/15 04:48:32;;;;;;;30.02;14.73;;;7.70;99.90;;;;;;20760078;28;20128;-41
2023/12/15 04:58:32;;;;;;;24.13;12.50;;;7.70;99.90;;;;;;20757970;28;20048;-41
2023/12/15 05:08:33;;;;;;;25.88;11.95;;;7.70;99.90;;;;;;20755260;28;20033;-41
2023/12/15 05:18:33;;;;;;;20.75;10.18;;;7.60;99.90;;;;;;20736282;28;20461;-41
2023/12/15 05:28:34;;;;;;;32.95;11.35;;;7.60;99.90;;;;;;20727362;28;20511;-40
2023/12/15 05:38:34;;;;;;;26.15;10.57;;;7.80;99.90;;;;;;20696524;28;20502;-39
2023/12/15 05:48:35;;;;;;;23.55;9.80;;;7.90;99.90;;;;;;20746904;28;20037;-39
2023/12/15 05:58:35;;;;;;;19.90;9.57;;;7.90;99.90;;;;;;20745589;28;20045;-41
2023/12/15 06:08:36;;;;;;;20.05;9.38;;;8.10;99.90;;;;;;20747277;28;20042;-39
2023/12/15 06:18:36;;;;;;;20.00;9.25;;;8.00;99.90;;;;;;20743814;28;20055;-40
2023/12/15 06:28:37;;;;;;;18.00;7.45;;;8.00;99.90;;;;;;20749888;28;20469;-40
2023/12/15 06:38:44;;;;;;;20.92;8.30;;;7.90;99.90;;;;;;20746974;28;20063;-41
2023/12/15 06:48:45;;;;;;;21.88;8.65;;;8.10;99.90;;;;;;20750669;28;20537;-42
2023/12/15 06:58:45;;;;;;;23.02;8.48;;;8.10;99.90;;;;;;20747325;28;20064;-39
2023/12/15 07:08:53;;;;;;;25.40;9.02;;;8.10;99.90;;;;;;20745199;28;20552;-41
2023/12/15 07:18:54;;;;;;;20.23;6.75;;;8.10;99.90;;;;;;20744101;28;20183;-41
2023/12/15 07:28:54;;;;;;;14.43;6.28;;;8.10;99.90;;;;;;20743039;28;20104;-41
2023/12/15 07:38:55;;;;;;;24.48;6.90;;;8.10;99.90;;;;;;20741144;28;20515;-39
2023/12/15 07:48:56;;;;;;;17.17;6.03;;;8.20;99.90;;;;;;20743898;28;20116;-39
2023/12/15 07:58:56;;;;;;;20.92;6.10;;;8.20;99.90;;;;;;20744996;28;20535;-40
2023/12/15 08:08:57;;;;;;;27.73;8.07;;;8.20;99.90;;;;;;20746627;28;20098;-40
2023/12/15 08:18:58;;;;;;;15.82;5.65;;;8.30;99.90;;;;;;20744057;28;20056;-39
2023/12/15 08:28:58;;;;;;;18.30;6.00;;;8.40;99.90;;;;;;20745254;28;20041;-41
2023/12/15 08:38:59;;;;;;;13.48;5.05;;;8.30;99.90;;;;;;20750912;28;20456;-40
2023/12/15 08:48:59;;;;;;;19.65;5.53;;;8.30;99.90;;;;;;20744117;28;20093;-40
2023/12/15 08:59:00;;;;;;;14.93;5.63;;;8.70;99.90;;;;;;20754244;28;20049;-40
2023/12/15 09:09:00;;;;;;;18.55;5.30;;;8.50;99.90;;;;;;20757955;28;20070;-40
2023/12/15 09:19:01;;;;;;;19.85;5.07;;;8.60;99.90;;;;;;20757683;28;20516;-40
2023/12/15 09:29:02;;;;;;;22.80;5.55;;;8.70;99.90;;;;;;20759843;28;20673;-40
2023/12/15 09:39:03;;;;;;;16.55;4.85;;;8.80;99.90;;;;;;20758704;28;20047;-40
2023/12/15 09:49:04;;;;;;;19.92;5.07;;;8.80;99.90;;;;;;20758544;28;20153;-40
2023/12/15 09:59:05;;;;;;;19.27;4.72;;;8.90;99.90;;;;;;20761070;28;20427;-41
2023/12/15 10:09:18;;;;;;;22.25;5.45;;;8.90;99.90;;;;;;20755576;28;20123;-41
2023/12/15 10:19:23;;;;;;;25.95;5.57;;;9.10;99.90;;;;;;20754062;28;20049;-40
2023/12/15 10:29:24;;;;;;;16.35;4.20;;;9.10;99.90;;;;;;20755451;28;20041;-40
2023/12/15 10:39:25;;;;;;;11.85;3.53;;;9.20;99.90;;;;;;20754542;28;20048;-41
2023/12/15 10:49:27;;;;;;;17.08;4.05;;;9.20;99.90;;;;;;20754700;28;20040;-41
2023/12/15 10:59:28;;;;;;;13.18;3.50;;;9.20;99.90;;;;;;20756039;28;20483;-40
2023/12/15 11:09:32;;;;;;;13.73;4.55;;;9.30;99.90;;;;;;20757332;28;20384;-40
2023/12/15 11:19:32;;;;;;;15.50;4.55;;;9.50;99.90;;;;;;20753187;28;20096;-41
2023/12/15 11:29:36;;;;;;;12.55;3.50;;;9.60;69.60;;;;;;20752818;28;20030;-40
2023/12/15 11:39:39;;;;;;;13.10;2.85;;;9.60;57.90;;;;;;20747659;28;20048;-40
2023/12/15 11:49:42;;;;;;;13.55;3.15;;;9.70;39.90;;;;;;20748543;28;20124;-40
2023/12/15 11:59:46;;;;;;;10.80;2.50;;;9.70;37.10;;;;;;20743653;28;20056;-40
2023/12/15 12:09:46;;;;;;;10.30;2.13;;;9.90;14.30;;;;;;20743701;28;20531;-40
2023/12/15 12:19:47;;;;;;;9.05;2.15;;;9.80;18.60;;;;;;20741724;28;20425;-40
2023/12/15 12:29:48;;;;;;;7.35;1.98;;;9.80;18.10;;;;;;20750753;28;20140;-41
2023/12/15 12:39:48;;;;;;;8.68;1.92;;;9.90;16.30;;;;;;20759069;28;20502;-41
2023/12/15 12:49:50;;;;;;;10.23;2.23;;;10.00;16.70;;;;;;20755920;28;20417;-40
2023/12/15 12:59:50;;;;;;;7.82;2.10;;;9.90;16.40;;;;;;20761031;28;20054;-41
2023/12/15 13:09:51;;;;;;;12.23;2.00;;;9.90;15.50;;;;;;20770071;28;20053;-41
2023/12/15 13:19:52;;;;;;;11.35;1.65;;;10.00;13.30;;;;;;20763826;28;20049;-40
2023/12/15 13:29:53;;;;;;;12.90;2.17;;;10.00;12.90;;;;;;20763135;28;20559;-41
2023/12/15 13:39:54;;;;;;;12.07;2.10;;;10.00;11.10;;;;;;20761545;28;20041;-40
2023/12/15 13:49:56;;;;;;;10.10;2.17;;;9.80;15.30;;;;;;20765816;28;20586;-41
2023/12/15 13:59:56;;;;;;;10.70;1.83;;;9.80;18.90;;;;;;20760168;28;20145;-40
2023/12/15 14:09:57;;;;;;;12.25;1.80;;;9.80;22.40;;;;;;20758794;28;20079;-40
2023/12/15 14:19:57;;;;;;;13.05;2.20;;;9.80;21.80;;;;;;20758762;28;20034;-40
2023/12/15 14:29:59;;;;;;;8.53;2.27;;;9.70;25.10;;;;;;20754440;28;20037;-41
2023/12/15 14:39:59;;;;;;;13.35;2.35;;;9.70;26.30;;;;;;20757627;28;20061;-40
2023/12/15 14:50:00;;;;;;;11.65;2.75;;;9.60;30.10;;;;;;20761721;28;20053;-41
2023/12/15 15:00:00;;;;;;;10.50;2.08;;;9.50;32.30;;;;;;20757501;28;20050;-41
2023/12/15 15:10:02;;;;;;;9.18;1.85;;;9.50;24.20;;;;;;20757202;28;20033;-40
2023/12/15 15:20:03;;;;;;;12.57;2.05;;;9.40;18.30;;;;;;20755179;28;20072;-40
2023/12/15 15:30:05;;;;;;;8.75;1.58;;;9.40;13.10;;;;;;20752770;28;20049;-40
2023/12/15 15:40:06;;;;;;;6.78;1.27;;;9.40;5.50;;;;;;20753825;28;20057;-40
2023/12/15 15:50:07;;;;;;;10.85;1.85;;;9.20;2.60;;;;;;20755909;28;20511;-41
2023/12/15 16:00:08;;;;;;;7.03;1.42;;;9.20;1.40;;;;;;20752013;28;20517;-41
2023/12/15 16:10:09;;;;;;;6.18;1.50;;;9.10;1.00;;;;;;20767479;28;20034;-40
2023/12/15 16:20:10;;;;;;;6.28;1.27;;;9.20;1.00;;;;;;20765248;28;20065;-40
2023/12/15 16:30:11;;;;;;;7.07;1.58;;;9.20;1.00;;;;;;20765645;28;20490;-40
2023/12/15 16:40:12;;;;;;;5.47;1.50;;;9.20;1.00;;;;;;20767951;28;20049;-40
2023/12/15 16:50:12;;;;;;;7.85;1.63;;;9.00;1.00;;;;;;20769368;28;20502;-41
2023/12/15 17:00:14;;;;;;;10.73;2.22;;;8.90;1.00;;;;;;20763367;28;22700;-40
2023/12/15 17:10:15;;;;;;;8.63;2.20;;;8.80;1.00;;;;;;20752645;28;20052;-40
2023/12/15 17:20:15;;;;;;;7.90;2.15;;;8.90;1.00;;;;;;20750258;28;20038;-40
2023/12/15 17:30:16;;;;;;;8.32;2.28;;;9.10;1.00;;;;;;20762602;28;20041;-41
2023/12/15 17:40:17;;;;;;;18.10;7.40;;;9.00;1.00;;;;;;20761881;28;20489;-40
2023/12/15 17:50:19;;;;;;;11.93;4.97;;;9.00;1.00;;;;;;20758748;28;20911;-40
2023/12/15 18:00:20;;;;;;;14.30;4.68;;;9.20;1.00;;;;;;20758232;28;20132;-40
2023/12/15 18:10:21;;;;;;;13.70;4.10;;;9.10;1.00;;;;;;20755885;28;20042;-40
2023/12/15 18:20:22;;;;;;;9.77;3.72;;;9.00;1.00;;;;;;20753514;28;20060;-41
2023/12/15 18:30:22;;;;;;;16.52;3.80;;;8.90;1.00;;;;;;20754465;28;20034;-40
2023/12/15 18:40:23;;;;;;;11.60;4.10;;;9.00;1.00;;;;;;20756281;28;20037;-40
2023/12/15 18:50:24;;;;;;;16.50;5.40;;;8.90;1.00;;;;;;20753586;28;20374;-41
2023/12/15 19:00:24;;;;;;;14.90;3.78;;;9.00;1.00;;;;;;20754514;28;20234;-40
2023/12/15 19:10:25;;;;;;;15.57;4.50;;;9.10;1.00;;;;;;20756127;28;20033;-40
2023/12/15 19:20:29;;;;;;;11.40;2.75;;;9.10;1.00;;;;;;20745315;28;20049;-40
2023/12/15 19:30:29;;;;;;;12.93;3.67;;;9.00;1.00;;;;;;20750009;28;20711;-40
2023/12/15 19:40:30;;;;;;;10.82;3.47;;;8.80;1.00;;;;;;20748350;28;20037;-41
2023/12/15 19:50:31;;;;;;;13.48;3.30;;;8.70;1.00;;;;;;20750917;28;20030;-40
2023/12/15 20:00:33;;;;;;;13.30;3.28;;;8.80;1.00;;;;;;20752414;28;20420;-41
2023/12/15 20:10:34;;;;;;;12.57;3.38;;;8.80;1.00;;;;;;20747060;28;20047;-41
2023/12/15 20:20:35;;;;;;;13.98;4.57;;;8.90;1.00;;;;;;20739248;28;20053;-40
2023/12/15 20:30:35;;;;;;;13.67;3.87;;;8.90;1.00;;;;;;20741570;28;20045;-40
2023/12/15 20:40:36;;;;;;;12.07;3.20;;;8.90;1.00;;;;;;20749190;28;20600;-40
2023/12/15 20:50:37;;;;;;;11.70;3.13;;;9.00;1.00;;;;;;20752196;28;20230;-40
2023/12/15 21:00:38;;;;;;;26.67;14.30;;;8.90;1.00;;;;;;20762565;28;20041;-40
2023/12/15 21:10:38;;;;;;;11.57;4.90;;;8.80;1.00;;;;;;20758228;28;20405;-40
2023/12/15 21:20:40;;;;;;;12.93;4.18;;;8.80;1.00;;;;;;20762231;28;20057;-40
2023/12/15 21:30:40;;;;;;;12.32;3.90;;;8.90;1.00;;;;;;20765323;28;20477;-40
2023/12/15 21:40:41;;;;;;;13.60;4.10;;;8.80;1.00;;;;;;20759567;28;20416;-40
2023/12/15 21:50:43;;;;;;;12.85;3.80;;;8.90;1.00;;;;;;20752652;28;20199;-40
2023/12/15 22:00:44;;;;;;;12.10;4.25;;;8.80;1.00;;;;;;20756066;28;20117;-40
2023/12/15 22:10:45;;;;;;;16.52;4.72;;;8.90;1.00;;;;;;20759855;28;20041;-40
2023/12/15 22:20:45;;;;;;;9.57;3.03;;;8.90;1.00;;;;;;20760111;28;20063;-40
2023/12/15 22:30:49;;;;;;;26.48;14.27;;;9.00;1.00;;;;;;20757378;28;20059;-40
2023/12/15 22:40:50;;;;;;;20.38;9.27;;;9.00;1.00;;;;;;20759023;28;20770;-40
2023/12/15 22:50:50;;;;;;;13.35;4.53;;;8.90;1.00;;;;;;20754787;28;20402;-40
2023/12/15 23:00:51;;;;;;;14.80;5.18;;;8.90;1.00;;;;;;20758254;28;20069;-40
2023/12/15 23:10:52;;;;;;;17.75;6.35;;;8.90;1.00;;;;;;20743981;28;20669;-40
2023/12/15 23:20:52;;;;;;;12.40;3.92;;;8.90;1.00;;;;;;20756539;28;20468;-40
2023/12/15 23:30:53;;;;;;;14.38;3.60;;;8.80;1.00;;;;;;20751552;28;20041;-40
2023/12/15 23:40:53;;;;;;;10.02;3.30;;;8.90;1.00;;;;;;20755104;28;20413;-40
2023/12/15 23:50:54;;;;;;;10.15;2.67;;;8.80;1.00;;;;;;20754212;28;20053;-40
